Emporia, KS (66801)

8:19 AM CDT on August 25, 2016 (GMT -0500)
Timmerman School Area | | Change Station

Elev 1214 ft 38.43 °N, 96.22 °W | Updated 16 seconds ago

Partly Cloudy
Partly Cloudy
69.3 °F
Feels Like 69.3 °F
N
0.0
Wind Variable Wind from NW
Gusts 0.0 mph

Today
High -- | Low -- °F
--% Chance of Precip.
Yesterday
High -- | Low -- °F
Precip. -- in
Pressure 30.02 in
Visibility 10.0 miles
Clouds Few 9500 ft
Dew Point 36 °F
Humidity 30%
Rainfall 0.58 in
Snow Depth Not available.
6:48 AM 8:04 PM
Last Quarter, 45% visible
METAR KEMP 251253Z AUTO 00000KT 10SM FEW095 21/19 A3004 RMK AO2 RAE1157 SLP166 P0000 T02060189
Pressure 30.02 in
Visibility 10.0 miles
Clouds Few 9500 ft
Dew Point 36 °F
Humidity 30%
Rainfall 0.58 in
Snow Depth Not available.
6:48 AM 8:04 PM
Last Quarter, 45% visible
METAR KEMP 251253Z AUTO 00000KT 10SM FEW095 21/19 A3004 RMK AO2 RAE1157 SLP166 P0000 T02060189

10-Day Weather Forecast

Almanac

Astronomy

Aug. 25, 2016 Rise Set
Actual Time
Civil Twilight
Nautical Twilight
Astronomical Twilight
Moon
Length of Visible Light
Length of Day
Tomorrow will be .
, % of the Moon is Illuminated

Today's Extremes

State Highs State Lows

Community

WunderPhotos

Upload Photos

1,934,842 photos uploaded!

WunderBlog® & News

Nearby

Air Quality

  Air Quality AQ Index Pollutant
Not available.

Snow Depth

Station Depth Elevation

Earthquake Activity

City Distance Mag. Time & Date
Minimum magnitude displayed is 2.5.

Coastal Water Temperatures

Place Temperature

Stations

Nearby Weather Stations

Station Location Temp. Windchill Dew Point Humidity Wind Precip. Elev Updated Type
                   

Watches & Warnings

There are currently no watches in effect.